sensor_id;sensor_type;location;lat;lon;timestamp;P1;durP1;ratioP1;P2;durP2;ratioP2
31442;SDS011;18065;55.876;9.830;2022-08-25T00:01:46;1.73;;;1.00;;
31442;SDS011;18065;55.876;9.830;2022-08-25T00:04:19;1.83;;;1.00;;
31442;SDS011;18065;55.876;9.830;2022-08-25T00:06:48;1.98;;;0.98;;
31442;SDS011;18065;55.876;9.830;2022-08-25T00:09:20;2.10;;;0.93;;
31442;SDS011;18065;55.876;9.830;2022-08-25T00:11:52;2.03;;;1.05;;
31442;SDS011;18065;55.876;9.830;2022-08-25T00:14:22;2.70;;;1.00;;
31442;SDS011;18065;55.876;9.830;2022-08-25T00:16:52;3.42;;;1.13;;
31442;SDS011;18065;55.876;9.830;2022-08-25T00:19:25;2.38;;;1.13;;
31442;SDS011;18065;55.876;9.830;2022-08-25T00:21:56;1.52;;;1.00;;
31442;SDS011;18065;55.876;9.830;2022-08-25T00:24:25;1.58;;;0.90;;
31442;SDS011;18065;55.876;9.830;2022-08-25T00:26:54;3.53;;;0.90;;
31442;SDS011;18065;55.876;9.830;2022-08-25T00:29:26;2.38;;;1.08;;
31442;SDS011;18065;55.876;9.830;2022-08-25T00:31:55;2.92;;;1.00;;
31442;SDS011;18065;55.876;9.830;2022-08-25T00:34:28;1.48;;;0.93;;
31442;SDS011;18065;55.876;9.830;2022-08-25T00:37:00;1.85;;;1.13;;
31442;SDS011;18065;55.876;9.830;2022-08-25T00:39:28;1.60;;;1.00;;
31442;SDS011;18065;55.876;9.830;2022-08-25T00:41:57;2.08;;;0.95;;
31442;SDS011;18065;55.876;9.830;2022-08-25T00:44:30;1.50;;;0.80;;
31442;SDS011;18065;55.876;9.830;2022-08-25T00:47:00;1.98;;;0.98;;
31442;SDS011;18065;55.876;9.830;2022-08-25T00:49:35;1.25;;;0.95;;
31442;SDS011;18065;55.876;9.830;2022-08-25T00:52:08;1.05;;;0.85;;
31442;SDS011;18065;55.876;9.830;2022-08-25T00:54:41;1.13;;;0.82;;
31442;SDS011;18065;55.876;9.830;2022-08-25T00:57:14;1.02;;;0.65;;
31442;SDS011;18065;55.876;9.830;2022-08-25T00:59:46;1.42;;;0.90;;
31442;SDS011;18065;55.876;9.830;2022-08-25T01:02:15;1.52;;;0.98;;
31442;SDS011;18065;55.876;9.830;2022-08-25T01:04:46;1.98;;;0.90;;
31442;SDS011;18065;55.876;9.830;2022-08-25T01:07:15;1.40;;;0.90;;
31442;SDS011;18065;55.876;9.830;2022-08-25T01:09:47;1.60;;;1.00;;
31442;SDS011;18065;55.876;9.830;2022-08-25T01:12:19;2.65;;;0.95;;
31442;SDS011;18065;55.876;9.830;2022-08-25T01:14:49;2.00;;;0.88;;
31442;SDS011;18065;55.876;9.830;2022-08-25T01:17:18;2.55;;;1.10;;
31442;SDS011;18065;55.876;9.830;2022-08-25T01:19:50;2.22;;;1.08;;
31442;SDS011;18065;55.876;9.830;2022-08-25T01:22:22;1.80;;;1.10;;
31442;SDS011;18065;55.876;9.830;2022-08-25T01:24:53;2.85;;;1.00;;
31442;SDS011;18065;55.876;9.830;2022-08-25T01:27:26;2.80;;;0.90;;
31442;SDS011;18065;55.876;9.830;2022-08-25T01:29:55;1.27;;;0.80;;
31442;SDS011;18065;55.876;9.830;2022-08-25T01:32:24;2.35;;;0.93;;
31442;SDS011;18065;55.876;9.830;2022-08-25T01:34:53;1.38;;;0.75;;
31442;SDS011;18065;55.876;9.830;2022-08-25T01:37:24;2.97;;;1.23;;
31442;SDS011;18065;55.876;9.830;2022-08-25T01:39:53;1.85;;;1.00;;
31442;SDS011;18065;55.876;9.830;2022-08-25T01:42:28;2.40;;;1.10;;
31442;SDS011;18065;55.876;9.830;2022-08-25T01:45:09;2.75;;;1.20;;
31442;SDS011;18065;55.876;9.830;2022-08-25T01:47:38;1.73;;;1.13;;
31442;SDS011;18065;55.876;9.830;2022-08-25T01:50:06;2.38;;;0.90;;
31442;SDS011;18065;55.876;9.830;2022-08-25T01:52:44;2.20;;;1.10;;
31442;SDS011;18065;55.876;9.830;2022-08-25T01:55:17;0.93;;;0.82;;
31442;SDS011;18065;55.876;9.830;2022-08-25T01:57:47;1.02;;;0.90;;
31442;SDS011;18065;55.876;9.830;2022-08-25T02:00:16;1.38;;;1.02;;
31442;SDS011;18065;55.876;9.830;2022-08-25T02:02:45;2.15;;;1.10;;
31442;SDS011;18065;55.876;9.830;2022-08-25T02:05:14;1.67;;;0.98;;
31442;SDS011;18065;55.876;9.830;2022-08-25T02:07:46;1.30;;;1.00;;
31442;SDS011;18065;55.876;9.830;2022-08-25T02:10:15;1.70;;;0.90;;
31442;SDS011;18065;55.876;9.830;2022-08-25T02:12:43;2.30;;;1.23;;
31442;SDS011;18065;55.876;9.830;2022-08-25T02:15:12;2.28;;;1.00;;
31442;SDS011;18065;55.876;9.830;2022-08-25T02:17:41;3.58;;;1.30;;
31442;SDS011;18065;55.876;9.830;2022-08-25T02:20:09;2.67;;;1.27;;
31442;SDS011;18065;55.876;9.830;2022-08-25T02:22:38;3.55;;;1.50;;
31442;SDS011;18065;55.876;9.830;2022-08-25T02:25:10;2.03;;;1.00;;
31442;SDS011;18065;55.876;9.830;2022-08-25T02:27:40;0.97;;;0.70;;
31442;SDS011;18065;55.876;9.830;2022-08-25T02:30:10;2.55;;;1.30;;
31442;SDS011;18065;55.876;9.830;2022-08-25T02:32:39;1.52;;;0.85;;
31442;SDS011;18065;55.876;9.830;2022-08-25T02:35:08;2.25;;;0.90;;
31442;SDS011;18065;55.876;9.830;2022-08-25T02:37:37;1.25;;;0.95;;
31442;SDS011;18065;55.876;9.830;2022-08-25T02:40:07;1.02;;;0.70;;
31442;SDS011;18065;55.876;9.830;2022-08-25T02:42:39;1.77;;;1.10;;
31442;SDS011;18065;55.876;9.830;2022-08-25T02:45:08;1.45;;;0.82;;
31442;SDS011;18065;55.876;9.830;2022-08-25T02:47:38;2.25;;;0.80;;
31442;SDS011;18065;55.876;9.830;2022-08-25T02:50:07;1.30;;;0.80;;
31442;SDS011;18065;55.876;9.830;2022-08-25T02:52:36;1.23;;;0.90;;
31442;SDS011;18065;55.876;9.830;2022-08-25T02:55:07;1.35;;;0.77;;
31442;SDS011;18065;55.876;9.830;2022-08-25T02:57:40;1.27;;;0.90;;
31442;SDS011;18065;55.876;9.830;2022-08-25T03:00:10;2.05;;;0.73;;
31442;SDS011;18065;55.876;9.830;2022-08-25T03:02:41;2.35;;;0.80;;
31442;SDS011;18065;55.876;9.830;2022-08-25T03:05:11;1.67;;;0.80;;
31442;SDS011;18065;55.876;9.830;2022-08-25T03:07:41;0.90;;;0.60;;
31442;SDS011;18065;55.876;9.830;2022-08-25T03:10:14;2.92;;;1.08;;
31442;SDS011;18065;55.876;9.830;2022-08-25T03:12:45;2.42;;;1.00;;
31442;SDS011;18065;55.876;9.830;2022-08-25T03:15:14;1.52;;;0.90;;
31442;SDS011;18065;55.876;9.830;2022-08-25T03:17:44;1.08;;;0.70;;
31442;SDS011;18065;55.876;9.830;2022-08-25T03:20:15;1.45;;;0.75;;
31442;SDS011;18065;55.876;9.830;2022-08-25T03:22:44;0.80;;;0.80;;
31442;SDS011;18065;55.876;9.830;2022-08-25T03:25:15;1.20;;;0.65;;
31442;SDS011;18065;55.876;9.830;2022-08-25T03:27:57;1.40;;;0.88;;
31442;SDS011;18065;55.876;9.830;2022-08-25T03:30:26;1.05;;;0.60;;
31442;SDS011;18065;55.876;9.830;2022-08-25T03:32:55;1.70;;;0.90;;
31442;SDS011;18065;55.876;9.830;2022-08-25T03:35:24;1.65;;;0.70;;
31442;SDS011;18065;55.876;9.830;2022-08-25T03:37:54;2.45;;;0.70;;
31442;SDS011;18065;55.876;9.830;2022-08-25T03:40:26;0.73;;;0.60;;
31442;SDS011;18065;55.876;9.830;2022-08-25T03:42:54;1.42;;;0.80;;
31442;SDS011;18065;55.876;9.830;2022-08-25T03:45:23;0.70;;;0.70;;
31442;SDS011;18065;55.876;9.830;2022-08-25T03:47:52;1.45;;;0.80;;
31442;SDS011;18065;55.876;9.830;2022-08-25T03:50:21;1.23;;;0.77;;
31442;SDS011;18065;55.876;9.830;2022-08-25T03:52:51;1.10;;;0.77;;
31442;SDS011;18065;55.876;9.830;2022-08-25T03:55:23;2.22;;;1.02;;
31442;SDS011;18065;55.876;9.830;2022-08-25T03:57:55;3.30;;;1.10;;
31442;SDS011;18065;55.876;9.830;2022-08-25T04:00:23;2.28;;;1.00;;
31442;SDS011;18065;55.876;9.830;2022-08-25T04:02:52;2.03;;;1.17;;
31442;SDS011;18065;55.876;9.830;2022-08-25T04:05:21;2.13;;;0.68;;
31442;SDS011;18065;55.876;9.830;2022-08-25T04:07:49;2.30;;;0.90;;
31442;SDS011;18065;55.876;9.830;2022-08-25T04:10:18;2.28;;;0.80;;
31442;SDS011;18065;55.876;9.830;2022-08-25T04:12:50;0.95;;;0.85;;
31442;SDS011;18065;55.876;9.830;2022-08-25T04:15:20;2.17;;;1.00;;
31442;SDS011;18065;55.876;9.830;2022-08-25T04:17:49;1.60;;;0.75;;
31442;SDS011;18065;55.876;9.830;2022-08-25T04:20:18;3.30;;;0.80;;
31442;SDS011;18065;55.876;9.830;2022-08-25T04:22:47;3.60;;;0.80;;
31442;SDS011;18065;55.876;9.830;2022-08-25T04:25:15;1.90;;;0.90;;
31442;SDS011;18065;55.876;9.830;2022-08-25T04:27:44;0.75;;;0.60;;
31442;SDS011;18065;55.876;9.830;2022-08-25T04:30:16;5.07;;;1.00;;
31442;SDS011;18065;55.876;9.830;2022-08-25T04:32:45;2.95;;;0.90;;
31442;SDS011;18065;55.876;9.830;2022-08-25T04:35:14;1.55;;;0.90;;
31442;SDS011;18065;55.876;9.830;2022-08-25T04:37:43;1.33;;;1.00;;
31442;SDS011;18065;55.876;9.830;2022-08-25T04:40:13;1.58;;;0.70;;
31442;SDS011;18065;55.876;9.830;2022-08-25T04:42:41;2.72;;;1.00;;
31442;SDS011;18065;55.876;9.830;2022-08-25T04:45:10;1.83;;;1.00;;
31442;SDS011;18065;55.876;9.830;2022-08-25T04:47:41;4.45;;;1.17;;
31442;SDS011;18065;55.876;9.830;2022-08-25T04:50:10;2.72;;;1.10;;
31442;SDS011;18065;55.876;9.830;2022-08-25T04:52:39;1.70;;;1.00;;
31442;SDS011;18065;55.876;9.830;2022-08-25T04:55:08;1.52;;;1.00;;
31442;SDS011;18065;55.876;9.830;2022-08-25T04:57:36;1.80;;;1.10;;
31442;SDS011;18065;55.876;9.830;2022-08-25T05:00:05;1.63;;;0.88;;
31442;SDS011;18065;55.876;9.830;2022-08-25T05:02:35;1.95;;;0.88;;
31442;SDS011;18065;55.876;9.830;2022-08-25T05:05:06;2.97;;;1.38;;
31442;SDS011;18065;55.876;9.830;2022-08-25T05:07:35;2.17;;;1.10;;
31442;SDS011;18065;55.876;9.830;2022-08-25T05:10:05;2.63;;;0.95;;
31442;SDS011;18065;55.876;9.830;2022-08-25T05:12:34;4.20;;;1.17;;
31442;SDS011;18065;55.876;9.830;2022-08-25T05:15:03;1.92;;;1.00;;
31442;SDS011;18065;55.876;9.830;2022-08-25T05:17:45;2.70;;;1.17;;
31442;SDS011;18065;55.876;9.830;2022-08-25T05:20:16;2.35;;;1.02;;
31442;SDS011;18065;55.876;9.830;2022-08-25T05:22:48;2.47;;;1.15;;
31442;SDS011;18065;55.876;9.830;2022-08-25T05:25:16;3.75;;;1.13;;
31442;SDS011;18065;55.876;9.830;2022-08-25T05:27:45;2.30;;;0.82;;
31442;SDS011;18065;55.876;9.830;2022-08-25T05:30:14;3.40;;;1.30;;
31442;SDS011;18065;55.876;9.830;2022-08-25T05:32:43;2.17;;;0.93;;
31442;SDS011;18065;55.876;9.830;2022-08-25T05:35:12;6.65;;;1.08;;
31442;SDS011;18065;55.876;9.830;2022-08-25T05:37:43;3.47;;;1.00;;
31442;SDS011;18065;55.876;9.830;2022-08-25T05:40:12;2.13;;;0.95;;
31442;SDS011;18065;55.876;9.830;2022-08-25T05:42:40;2.78;;;1.10;;
31442;SDS011;18065;55.876;9.830;2022-08-25T05:45:09;2.70;;;1.10;;
31442;SDS011;18065;55.876;9.830;2022-08-25T05:47:38;3.55;;;1.23;;
31442;SDS011;18065;55.876;9.830;2022-08-25T05:50:08;4.03;;;1.42;;
31442;SDS011;18065;55.876;9.830;2022-08-25T05:52:37;2.15;;;1.02;;
31442;SDS011;18065;55.876;9.830;2022-08-25T05:55:09;2.13;;;1.10;;
31442;SDS011;18065;55.876;9.830;2022-08-25T05:57:40;3.22;;;1.13;;
31442;SDS011;18065;55.876;9.830;2022-08-25T06:00:09;1.40;;;0.82;;
31442;SDS011;18065;55.876;9.830;2022-08-25T06:02:38;2.05;;;1.00;;
31442;SDS011;18065;55.876;9.830;2022-08-25T06:05:13;3.78;;;1.10;;
31442;SDS011;18065;55.876;9.830;2022-08-25T06:07:46;3.25;;;1.30;;
31442;SDS011;18065;55.876;9.830;2022-08-25T06:10:19;3.15;;;1.30;;
31442;SDS011;18065;55.876;9.830;2022-08-25T06:12:48;2.30;;;1.20;;
31442;SDS011;18065;55.876;9.830;2022-08-25T06:15:18;4.40;;;1.80;;
31442;SDS011;18065;55.876;9.830;2022-08-25T06:17:48;5.18;;;1.70;;
31442;SDS011;18065;55.876;9.830;2022-08-25T06:20:18;3.28;;;1.63;;
31442;SDS011;18065;55.876;9.830;2022-08-25T06:22:49;6.70;;;1.88;;
31442;SDS011;18065;55.876;9.830;2022-08-25T06:25:21;4.82;;;2.08;;
31442;SDS011;18065;55.876;9.830;2022-08-25T06:30:21;3.78;;;2.20;;
31442;SDS011;18065;55.876;9.830;2022-08-25T06:32:50;4.45;;;1.65;;
31442;SDS011;18065;55.876;9.830;2022-08-25T06:35:19;3.42;;;1.92;;
31442;SDS011;18065;55.876;9.830;2022-08-25T06:37:48;5.15;;;1.85;;
31442;SDS011;18065;55.876;9.830;2022-08-25T06:40:17;5.78;;;1.92;;
31442;SDS011;18065;55.876;9.830;2022-08-25T06:42:49;3.92;;;1.70;;
31442;SDS011;18065;55.876;9.830;2022-08-25T06:45:17;2.20;;;1.73;;
31442;SDS011;18065;55.876;9.830;2022-08-25T06:47:46;3.70;;;1.83;;
31442;SDS011;18065;55.876;9.830;2022-08-25T06:50:16;4.80;;;2.15;;
31442;SDS011;18065;55.876;9.830;2022-08-25T06:52:44;5.13;;;1.80;;
31442;SDS011;18065;55.876;9.830;2022-08-25T06:55:13;2.80;;;1.40;;
31442;SDS011;18065;55.876;9.830;2022-08-25T06:57:42;3.92;;;1.77;;
31442;SDS011;18065;55.876;9.830;2022-08-25T07:00:14;8.10;;;2.28;;
31442;SDS011;18065;55.876;9.830;2022-08-25T07:02:43;4.38;;;2.15;;
31442;SDS011;18065;55.876;9.830;2022-08-25T07:05:11;3.08;;;1.85;;
31442;SDS011;18065;55.876;9.830;2022-08-25T07:07:41;6.90;;;2.00;;
31442;SDS011;18065;55.876;9.830;2022-08-25T07:10:10;3.35;;;1.92;;
31442;SDS011;18065;55.876;9.830;2022-08-25T07:12:39;6.72;;;2.03;;
31442;SDS011;18065;55.876;9.830;2022-08-25T07:15:08;7.88;;;2.45;;
31442;SDS011;18065;55.876;9.830;2022-08-25T07:17:40;4.60;;;2.05;;
31442;SDS011;18065;55.876;9.830;2022-08-25T07:20:10;4.90;;;2.00;;
31442;SDS011;18065;55.876;9.830;2022-08-25T07:22:39;3.90;;;1.92;;
31442;SDS011;18065;55.876;9.830;2022-08-25T07:25:08;3.70;;;2.05;;
31442;SDS011;18065;55.876;9.830;2022-08-25T07:27:38;6.55;;;1.73;;
31442;SDS011;18065;55.876;9.830;2022-08-25T07:30:07;3.95;;;2.10;;
31442;SDS011;18065;55.876;9.830;2022-08-25T07:32:37;2.35;;;1.83;;
31442;SDS011;18065;55.876;9.830;2022-08-25T07:35:08;3.30;;;1.92;;
31442;SDS011;18065;55.876;9.830;2022-08-25T07:37:41;3.28;;;1.70;;
31442;SDS011;18065;55.876;9.830;2022-08-25T07:40:12;5.10;;;2.20;;
31442;SDS011;18065;55.876;9.830;2022-08-25T07:42:42;4.53;;;2.00;;
31442;SDS011;18065;55.876;9.830;2022-08-25T07:45:11;3.10;;;1.88;;
31442;SDS011;18065;55.876;9.830;2022-08-25T07:47:41;2.72;;;1.80;;
31442;SDS011;18065;55.876;9.830;2022-08-25T07:50:12;2.05;;;1.75;;
31442;SDS011;18065;55.876;9.830;2022-08-25T07:52:41;3.00;;;1.83;;
31442;SDS011;18065;55.876;9.830;2022-08-25T07:55:10;6.10;;;1.90;;
31442;SDS011;18065;55.876;9.830;2022-08-25T07:57:39;7.50;;;2.08;;
31442;SDS011;18065;55.876;9.830;2022-08-25T08:00:09;4.45;;;1.80;;
31442;SDS011;18065;55.876;9.830;2022-08-25T08:02:40;3.88;;;1.92;;
31442;SDS011;18065;55.876;9.830;2022-08-25T08:05:13;3.40;;;2.10;;
31442;SDS011;18065;55.876;9.830;2022-08-25T08:07:42;3.50;;;2.10;;
31442;SDS011;18065;55.876;9.830;2022-08-25T08:10:11;4.60;;;2.10;;
31442;SDS011;18065;55.876;9.830;2022-08-25T08:12:41;3.67;;;1.80;;
31442;SDS011;18065;55.876;9.830;2022-08-25T08:15:10;4.05;;;2.08;;
31442;SDS011;18065;55.876;9.830;2022-08-25T08:17:39;5.20;;;1.92;;
31442;SDS011;18065;55.876;9.830;2022-08-25T08:20:09;7.00;;;2.10;;
31442;SDS011;18065;55.876;9.830;2022-08-25T08:22:41;4.40;;;1.97;;
31442;SDS011;18065;55.876;9.830;2022-08-25T08:25:10;2.72;;;1.65;;
31442;SDS011;18065;55.876;9.830;2022-08-25T08:27:39;5.70;;;1.70;;
31442;SDS011;18065;55.876;9.830;2022-08-25T08:30:10;6.00;;;2.33;;
31442;SDS011;18065;55.876;9.830;2022-08-25T08:32:40;4.75;;;1.85;;
31442;SDS011;18065;55.876;9.830;2022-08-25T08:35:08;8.25;;;1.95;;
31442;SDS011;18065;55.876;9.830;2022-08-25T08:37:43;5.70;;;1.95;;
31442;SDS011;18065;55.876;9.830;2022-08-25T08:40:11;4.78;;;1.73;;
31442;SDS011;18065;55.876;9.830;2022-08-25T08:42:47;6.03;;;2.15;;
31442;SDS011;18065;55.876;9.830;2022-08-25T08:45:33;4.20;;;2.00;;
31442;SDS011;18065;55.876;9.830;2022-08-25T08:48:11;5.47;;;2.00;;
31442;SDS011;18065;55.876;9.830;2022-08-25T08:51:03;5.05;;;1.98;;
31442;SDS011;18065;55.876;9.830;2022-08-25T08:53:42;2.88;;;1.58;;
31442;SDS011;18065;55.876;9.830;2022-08-25T08:56:17;3.00;;;1.85;;
31442;SDS011;18065;55.876;9.830;2022-08-25T08:58:51;3.55;;;2.03;;
31442;SDS011;18065;55.876;9.830;2022-08-25T09:01:23;3.25;;;1.63;;
